createdAt,value
2018-05-11T00:01:20.406Z,4.00
2018-05-11T00:03:46.912Z,4.70
2018-05-11T00:06:13.391Z,4.20
2018-05-11T00:08:39.871Z,4.07
2018-05-11T00:11:06.313Z,4.57
2018-05-11T00:13:32.805Z,4.63
2018-05-11T00:15:59.301Z,4.50
2018-05-11T00:18:25.726Z,4.33
2018-05-11T00:20:52.226Z,3.67
2018-05-11T00:23:18.757Z,4.07
2018-05-11T00:25:45.157Z,4.33
2018-05-11T00:28:11.587Z,4.00
2018-05-11T00:30:37.965Z,4.03
2018-05-11T00:33:04.412Z,3.93
2018-05-11T00:35:30.961Z,4.70
2018-05-11T00:37:57.370Z,4.50
2018-05-11T00:40:23.817Z,5.10
2018-05-11T00:42:50.256Z,4.80
2018-05-11T00:45:16.860Z,5.20
2018-05-11T00:47:43.265Z,5.33
2018-05-11T00:50:09.716Z,5.30
2018-05-11T00:52:36.153Z,4.73
2018-05-11T00:55:14.687Z,4.83
2018-05-11T00:57:41.134Z,5.10
2018-05-11T01:00:08.447Z,5.80
2018-05-11T01:02:34.939Z,5.33
2018-05-11T01:05:01.410Z,6.00
2018-05-11T01:07:29.265Z,6.50
2018-05-11T01:09:55.692Z,6.77
2018-05-11T01:12:22.187Z,5.80
2018-05-11T01:14:48.640Z,5.50
2018-05-11T01:17:15.088Z,5.53
2018-05-11T01:19:41.598Z,5.97
2018-05-11T01:22:08.131Z,5.90
2018-05-11T01:24:34.596Z,6.00
2018-05-11T01:27:01.021Z,6.10
2018-05-11T01:29:27.361Z,5.77
2018-05-11T01:31:53.882Z,5.07
2018-05-11T01:34:20.307Z,4.90
2018-05-11T01:36:46.687Z,4.27
2018-05-11T01:39:13.050Z,4.13
2018-05-11T01:41:39.479Z,3.93
2018-05-11T01:44:05.907Z,4.10
2018-05-11T01:46:32.433Z,4.17
2018-05-11T01:48:59.000Z,3.43
2018-05-11T01:51:25.426Z,3.80
2018-05-11T01:53:51.954Z,4.23
2018-05-11T01:56:18.381Z,3.70
2018-05-11T01:58:44.887Z,3.97
2018-05-11T02:01:11.278Z,3.83
2018-05-11T02:03:38.545Z,4.00
2018-05-11T02:06:05.007Z,4.10
2018-05-11T02:08:31.392Z,3.50
2018-05-11T02:10:57.824Z,3.30
2018-05-11T02:13:24.254Z,3.53
2018-05-11T02:15:50.674Z,3.10
2018-05-11T02:18:17.126Z,3.10
2018-05-11T02:20:43.559Z,3.10
2018-05-11T02:23:09.994Z,3.30
2018-05-11T02:25:36.465Z,2.83
2018-05-11T02:28:02.922Z,3.40
2018-05-11T02:30:29.341Z,3.60
2018-05-11T02:32:55.867Z,3.27
2018-05-11T02:35:22.350Z,2.97
2018-05-11T02:37:48.776Z,3.23
2018-05-11T02:40:15.184Z,3.60
2018-05-11T02:42:41.667Z,3.10
2018-05-11T02:45:08.242Z,3.57
2018-05-11T02:47:34.972Z,3.10
2018-05-11T02:50:01.405Z,3.67
2018-05-11T02:52:28.637Z,3.27
2018-05-11T02:54:55.108Z,2.93
2018-05-11T02:57:21.677Z,3.27
2018-05-11T02:59:48.074Z,3.20
2018-05-11T03:02:14.576Z,3.17
2018-05-11T03:04:41.463Z,2.70
2018-05-11T03:07:08.053Z,2.90
2018-05-11T03:09:34.579Z,3.23
2018-05-11T03:12:01.029Z,3.60
2018-05-11T03:14:27.640Z,3.50
2018-05-11T03:16:54.123Z,3.70
2018-05-11T03:19:20.517Z,3.47
2018-05-11T03:21:46.890Z,4.67
2018-05-11T03:24:14.180Z,4.30
2018-05-11T03:26:40.761Z,6.93
2018-05-11T03:29:07.161Z,12.67
2018-05-11T03:31:33.677Z,8.43
2018-05-11T03:34:00.067Z,7.20
2018-05-11T03:36:26.578Z,6.23
2018-05-11T03:38:53.006Z,6.43
2018-05-11T03:41:19.383Z,6.37
2018-05-11T03:43:45.898Z,7.27
2018-05-11T03:46:12.285Z,12.00
2018-05-11T03:48:38.846Z,8.00
2018-05-11T03:51:05.365Z,7.50
2018-05-11T03:53:31.748Z,8.30
2018-05-11T03:55:58.200Z,8.73
2018-05-11T03:58:24.700Z,8.20
2018-05-11T04:00:51.124Z,8.20
2018-05-11T04:03:29.858Z,6.80
2018-05-11T04:19:35.793Z,7.13
2018-05-11T04:22:02.266Z,6.90
2018-05-11T04:24:28.755Z,7.77
2018-05-11T04:26:55.284Z,7.90
2018-05-11T04:29:21.661Z,7.60
2018-05-11T04:31:48.102Z,7.27
2018-05-11T04:34:14.461Z,8.03
2018-05-11T04:36:40.899Z,8.70
2018-05-11T04:39:07.566Z,8.47
2018-05-11T04:41:34.053Z,9.37
2018-05-11T04:44:00.515Z,9.03
2018-05-11T04:46:26.998Z,9.00
2018-05-11T04:48:53.446Z,9.03
2018-05-11T04:51:19.911Z,8.30
2018-05-11T04:53:47.232Z,7.93
2018-05-11T04:56:13.674Z,9.17
2018-05-11T04:58:40.187Z,8.73
2018-05-11T05:01:06.638Z,8.70
2018-05-11T05:03:33.149Z,7.20
2018-05-11T05:05:59.573Z,9.33
2018-05-11T05:08:26.071Z,9.20
2018-05-11T05:10:52.531Z,8.00
2018-05-11T05:13:18.941Z,8.83
2018-05-11T05:15:45.295Z,9.83
2018-05-11T05:18:11.777Z,8.93
2018-05-11T05:20:38.212Z,8.00
2018-05-11T05:23:04.694Z,9.70
2018-05-11T05:25:32.071Z,9.00
2018-05-11T05:27:58.543Z,7.70
2018-05-11T05:30:24.921Z,7.60
2018-05-11T05:32:51.297Z,7.20
2018-05-11T05:35:18.386Z,7.63
2018-05-11T05:37:44.790Z,6.70
2018-05-11T05:40:11.356Z,7.40
2018-05-11T05:42:37.837Z,7.10
2018-05-11T05:45:04.315Z,7.87
2018-05-11T05:47:30.788Z,5.90
2018-05-11T05:49:57.249Z,5.97
2018-05-11T05:52:23.793Z,6.50
2018-05-11T05:54:50.254Z,5.77
2018-05-11T05:57:16.809Z,6.40
2018-05-11T05:59:43.291Z,6.23
2018-05-11T06:02:09.814Z,6.57
2018-05-11T06:04:36.369Z,6.63
2018-05-11T06:07:02.925Z,6.33
2018-05-11T06:09:29.434Z,6.27
2018-05-11T06:11:55.902Z,16.27
2018-05-11T06:14:22.429Z,6.53
2018-05-11T06:16:48.844Z,6.23
2018-05-11T06:19:15.350Z,6.27
2018-05-11T06:21:41.762Z,5.27
2018-05-11T06:24:08.215Z,5.70
2018-05-11T06:26:34.857Z,5.70
2018-05-11T06:29:01.315Z,5.13
2018-05-11T06:31:27.838Z,5.50
2018-05-11T06:33:54.282Z,5.27
2018-05-11T06:36:20.828Z,5.00
2018-05-11T06:38:47.313Z,6.00
2018-05-11T06:41:13.757Z,5.67
2018-05-11T06:43:40.136Z,5.77
2018-05-11T06:46:06.671Z,6.67
2018-05-11T06:48:33.153Z,6.67
2018-05-11T06:50:59.600Z,5.53
2018-05-11T06:53:25.987Z,6.47
2018-05-11T06:55:52.479Z,6.87
2018-05-11T06:58:18.930Z,6.60
2018-05-11T07:00:45.577Z,6.40
2018-05-11T07:03:11.959Z,6.17
2018-05-11T07:05:38.382Z,7.00
2018-05-11T07:08:04.898Z,5.97
2018-05-11T07:10:31.320Z,5.57
2018-05-11T07:12:57.727Z,6.90
2018-05-11T07:15:24.146Z,6.03
2018-05-11T07:17:50.643Z,5.90
2018-05-11T07:20:17.040Z,6.53
2018-05-11T07:22:43.439Z,6.03
2018-05-11T07:25:09.976Z,5.93
2018-05-11T07:27:36.378Z,6.80
2018-05-11T07:30:03.016Z,7.57
2018-05-11T07:32:29.440Z,7.00
2018-05-11T07:34:56.831Z,6.80
2018-05-11T07:37:23.273Z,6.73
2018-05-11T07:39:49.647Z,6.33
2018-05-11T07:42:16.016Z,7.00
2018-05-11T07:44:42.567Z,6.40
2018-05-11T07:47:08.982Z,6.60
2018-05-11T07:49:35.922Z,7.53
2018-05-11T07:52:02.404Z,7.53
2018-05-11T07:54:28.760Z,6.80
2018-05-11T07:56:55.436Z,7.20
2018-05-11T07:59:21.862Z,7.90
2018-05-11T08:01:48.264Z,6.97
2018-05-11T08:04:14.683Z,7.30
2018-05-11T08:06:41.210Z,7.40
2018-05-11T08:09:07.646Z,6.77
2018-05-11T08:11:34.189Z,6.07
2018-05-11T08:14:00.690Z,5.70
2018-05-11T08:16:27.176Z,6.27
2018-05-11T08:18:54.464Z,6.23
2018-05-11T08:21:21.134Z,5.80
2018-05-11T08:23:47.521Z,5.97
2018-05-11T08:26:13.904Z,5.40
2018-05-11T08:28:40.392Z,5.87
2018-05-11T08:31:06.751Z,5.30
2018-05-11T08:33:33.362Z,6.10
2018-05-11T08:35:59.909Z,5.60
2018-05-11T08:38:26.273Z,6.67
2018-05-11T08:40:52.703Z,5.00
2018-05-11T08:43:19.159Z,5.17
2018-05-11T08:45:45.590Z,5.73
2018-05-11T08:48:11.958Z,5.13
2018-05-11T08:50:38.369Z,5.20
2018-05-11T08:53:04.950Z,5.30
2018-05-11T08:55:31.488Z,4.60
2018-05-11T08:57:57.869Z,5.17
2018-05-11T09:00:24.333Z,5.20
2018-05-11T09:02:50.863Z,5.03
2018-05-11T09:05:17.294Z,5.27
2018-05-11T09:07:43.938Z,5.10
2018-05-11T09:10:10.338Z,4.93
2018-05-11T09:12:36.780Z,5.20
2018-05-11T09:15:03.376Z,5.10
2018-05-11T09:17:29.855Z,4.70
2018-05-11T09:19:56.352Z,5.17
2018-05-11T09:22:22.826Z,5.50
2018-05-11T09:24:49.409Z,5.43
2018-05-11T09:27:15.901Z,5.70
2018-05-11T09:29:42.461Z,5.10
2018-05-11T09:32:08.971Z,6.17
2018-05-11T09:34:35.367Z,5.87
2018-05-11T09:37:01.835Z,5.27
2018-05-11T09:39:28.310Z,5.20
2018-05-11T09:41:54.756Z,4.83
2018-05-11T09:44:21.176Z,5.03
2018-05-11T09:46:47.626Z,5.40
2018-05-11T09:49:14.067Z,4.30
2018-05-11T09:51:40.582Z,6.90
2018-05-11T09:54:07.099Z,4.90
2018-05-11T09:56:33.533Z,5.00
2018-05-11T09:58:59.951Z,4.97
2018-05-11T10:01:26.346Z,4.80
2018-05-11T10:03:52.785Z,5.07
2018-05-11T10:06:19.384Z,5.17
2018-05-11T10:08:46.396Z,4.93
2018-05-11T10:11:12.844Z,5.17
2018-05-11T10:13:39.472Z,5.20
2018-05-11T10:16:05.853Z,5.23
2018-05-11T10:18:32.242Z,5.37
2018-05-11T10:20:58.680Z,5.07
2018-05-11T10:23:25.176Z,5.20
2018-05-11T10:25:51.549Z,5.23
2018-05-11T10:28:18.588Z,5.57
2018-05-11T10:30:44.992Z,5.03
2018-05-11T10:33:11.402Z,4.93
2018-05-11T10:35:37.855Z,4.70
2018-05-11T10:38:04.307Z,4.73
2018-05-11T10:40:30.839Z,5.30
2018-05-11T10:42:57.230Z,5.00
2018-05-11T10:45:24.179Z,4.87
2018-05-11T10:47:50.997Z,4.60
2018-05-11T10:50:17.513Z,5.57
2018-05-11T10:52:43.906Z,4.87
2018-05-11T10:55:10.360Z,5.20
2018-05-11T10:57:36.818Z,5.00
2018-05-11T11:00:03.273Z,5.80
2018-05-11T11:02:29.911Z,4.67
2018-05-11T11:04:56.396Z,4.90
2018-05-11T11:07:22.841Z,5.30
2018-05-11T11:09:49.317Z,5.23
2018-05-11T11:12:15.695Z,5.07
2018-05-11T11:14:42.054Z,5.13
2018-05-11T11:17:08.526Z,5.13
2018-05-11T11:19:34.983Z,5.23
2018-05-11T11:22:01.582Z,5.50
2018-05-11T11:24:28.111Z,5.53
2018-05-11T11:26:54.492Z,4.97
2018-05-11T11:29:21.082Z,5.03
2018-05-11T11:31:47.535Z,5.00
2018-05-11T11:34:13.964Z,5.17
2018-05-11T11:36:40.295Z,4.87
2018-05-11T11:39:06.754Z,4.63
2018-05-11T11:41:33.808Z,4.47
2018-05-11T11:44:00.200Z,5.10
2018-05-11T11:46:26.697Z,4.80
2018-05-11T11:48:53.146Z,4.83
2018-05-11T11:51:19.583Z,4.90
2018-05-11T11:53:46.086Z,4.80
2018-05-11T11:56:12.615Z,4.80
2018-05-11T11:58:39.315Z,4.70
2018-05-11T12:01:05.738Z,4.43
2018-05-11T12:03:32.179Z,4.53
2018-05-11T12:05:59.655Z,4.40
2018-05-11T12:08:27.932Z,4.77
2018-05-11T12:10:54.325Z,4.60
2018-05-11T12:13:20.718Z,4.93
2018-05-11T12:15:47.172Z,4.53
2018-05-11T12:18:13.582Z,4.60
2018-05-11T12:20:40.760Z,5.30
2018-05-11T12:23:07.138Z,4.70
2018-05-11T12:25:33.505Z,4.97
2018-05-11T12:27:59.895Z,5.23
2018-05-11T12:30:26.350Z,4.70
2018-05-11T12:32:52.853Z,4.33
2018-05-11T12:35:19.323Z,4.77
2018-05-11T12:37:45.781Z,4.40
2018-05-11T12:40:12.207Z,4.53
2018-05-11T12:42:38.614Z,5.03
2018-05-11T12:45:05.074Z,4.63
2018-05-11T12:47:31.538Z,4.60
2018-05-11T12:49:57.996Z,4.87
2018-05-11T12:52:24.431Z,5.00
2018-05-11T12:54:51.778Z,4.47
2018-05-11T12:57:20.776Z,4.63
2018-05-11T12:59:49.537Z,5.30
2018-05-11T13:02:15.961Z,5.70
2018-05-11T13:04:42.447Z,6.27
2018-05-11T13:07:09.003Z,10.03
2018-05-11T13:09:35.506Z,7.20
2018-05-11T13:12:01.909Z,7.07
2018-05-11T13:14:28.347Z,5.33
2018-05-11T13:16:54.774Z,6.07
2018-05-11T13:19:21.513Z,5.77
2018-05-11T13:21:47.867Z,6.20
2018-05-11T13:24:14.256Z,7.57
2018-05-11T13:26:40.757Z,7.23
2018-05-11T13:29:07.282Z,10.67
2018-05-11T13:31:33.758Z,7.70
2018-05-11T13:34:00.369Z,6.10
2018-05-11T13:36:27.188Z,7.37
2018-05-11T13:38:53.627Z,6.97
2018-05-11T13:41:20.107Z,7.87
2018-05-11T13:43:46.453Z,7.17
2018-05-11T13:46:12.977Z,7.33
2018-05-11T13:48:39.429Z,8.50
2018-05-11T13:51:05.849Z,8.70
2018-05-11T13:53:32.355Z,10.40
2018-05-11T13:55:59.798Z,10.13
2018-05-11T13:58:26.153Z,9.60
2018-05-11T14:00:52.556Z,8.40
2018-05-11T14:03:19.044Z,7.93
2018-05-11T14:05:45.591Z,8.93
2018-05-11T14:08:12.658Z,8.77
2018-05-11T14:10:39.112Z,8.10
2018-05-11T14:13:05.562Z,9.33
2018-05-11T14:15:32.113Z,9.37
2018-05-11T14:17:58.706Z,8.87
2018-05-11T14:20:25.260Z,10.30
2018-05-11T14:22:51.750Z,8.77
2018-05-11T14:25:18.298Z,9.63
2018-05-11T14:27:44.755Z,10.27
2018-05-11T14:30:11.275Z,9.33
2018-05-11T14:32:37.771Z,8.57
2018-05-11T14:35:04.249Z,9.23
2018-05-11T14:37:30.809Z,8.70
2018-05-11T14:39:57.337Z,7.53
2018-05-11T14:42:23.915Z,7.63
2018-05-11T14:44:50.310Z,8.13
2018-05-11T14:47:17.776Z,7.90
2018-05-11T14:49:44.280Z,7.63
2018-05-11T14:52:10.723Z,7.77
2018-05-11T14:54:37.102Z,7.40
2018-05-11T14:57:03.511Z,6.77
2018-05-11T14:59:29.991Z,7.47
2018-05-11T15:01:56.398Z,7.40
2018-05-11T15:04:22.778Z,8.27
2018-05-11T15:06:49.295Z,7.03
2018-05-11T15:09:15.766Z,7.00
2018-05-11T15:11:42.285Z,6.73
2018-05-11T15:14:08.763Z,7.03
2018-05-11T15:16:35.236Z,8.40
2018-05-11T15:19:02.754Z,6.47
2018-05-11T15:21:29.258Z,6.00
2018-05-11T15:23:55.783Z,6.50
2018-05-11T15:26:22.335Z,6.00
2018-05-11T15:28:49.148Z,6.37
2018-05-11T15:31:15.617Z,6.70
2018-05-11T15:33:42.043Z,6.87
2018-05-11T15:36:08.493Z,6.73
2018-05-11T15:38:35.053Z,6.67
2018-05-11T15:41:01.515Z,5.97
2018-05-11T15:43:27.890Z,5.00
2018-05-11T15:45:54.348Z,5.30
2018-05-11T15:48:20.823Z,5.17
2018-05-11T15:50:47.312Z,5.03
2018-05-11T15:53:13.762Z,4.97
2018-05-11T15:55:40.262Z,5.67
2018-05-11T15:58:06.677Z,5.60
2018-05-11T16:00:33.050Z,6.00
2018-05-11T16:02:59.416Z,4.93
2018-05-11T16:05:25.907Z,5.47
2018-05-11T16:07:52.428Z,4.83
2018-05-11T16:10:18.942Z,4.83
2018-05-11T16:12:45.427Z,5.00
2018-05-11T16:15:11.891Z,5.23
2018-05-11T16:17:38.311Z,4.77
2018-05-11T16:20:04.720Z,4.47
2018-05-11T16:22:31.277Z,5.00
2018-05-11T16:24:57.788Z,5.43
2018-05-11T16:27:24.283Z,7.63
2018-05-11T16:29:50.715Z,6.30
2018-05-11T16:32:17.257Z,13.27
2018-05-11T16:34:43.700Z,12.87
2018-05-11T16:37:10.098Z,14.03
2018-05-11T16:39:36.659Z,8.40
2018-05-11T16:42:03.101Z,10.50
2018-05-11T16:44:29.533Z,5.60
2018-05-11T16:46:56.020Z,4.80
2018-05-11T16:49:22.504Z,5.10
2018-05-11T16:51:49.026Z,5.30
2018-05-11T16:54:15.443Z,5.83
2018-05-11T16:56:41.945Z,5.33
2018-05-11T16:59:08.337Z,5.43
2018-05-11T17:01:34.769Z,4.70
2018-05-11T17:04:01.237Z,4.70
2018-05-11T17:06:27.638Z,4.70
2018-05-11T17:08:54.069Z,4.57
2018-05-11T17:11:20.641Z,5.27
2018-05-11T17:13:47.150Z,5.83
2018-05-11T17:16:13.690Z,5.83
2018-05-11T17:18:40.235Z,5.60
2018-05-11T17:21:06.665Z,5.13
2018-05-11T17:23:33.154Z,5.77
2018-05-11T17:25:59.662Z,7.30
2018-05-11T17:28:26.159Z,7.03
2018-05-11T17:30:52.693Z,5.60
2018-05-11T17:33:19.652Z,5.30
2018-05-11T17:35:46.041Z,5.10
2018-05-11T17:38:12.544Z,5.77
2018-05-11T17:40:39.016Z,6.80
2018-05-11T17:43:05.558Z,6.07
2018-05-11T17:45:31.943Z,7.03
2018-05-11T17:47:58.491Z,6.40
2018-05-11T17:50:24.945Z,5.70
2018-05-11T17:52:51.406Z,6.27
2018-05-11T17:55:17.800Z,6.27
2018-05-11T17:57:44.285Z,6.70
2018-05-11T18:00:10.667Z,6.80
2018-05-11T18:02:37.114Z,7.90
2018-05-11T18:05:03.600Z,6.87
2018-05-11T18:07:30.007Z,7.40
2018-05-11T18:09:56.602Z,8.33
2018-05-11T18:12:23.103Z,7.87
2018-05-11T18:14:49.404Z,7.80
2018-05-11T18:17:15.914Z,7.20
2018-05-11T18:19:42.535Z,7.67
2018-05-11T18:22:08.971Z,7.80
2018-05-11T18:24:35.367Z,8.47
2018-05-11T18:27:01.877Z,8.90
2018-05-11T18:29:28.420Z,8.37
2018-05-11T18:31:54.904Z,8.27
2018-05-11T18:34:22.303Z,7.23
2018-05-11T18:36:48.755Z,7.17
2018-05-11T18:39:15.129Z,6.77
2018-05-11T18:41:41.557Z,7.30
2018-05-11T18:44:08.079Z,7.00
2018-05-11T18:46:34.614Z,6.77
2018-05-11T18:49:01.089Z,7.03
2018-05-11T18:51:27.636Z,8.03
2018-05-11T18:53:54.525Z,8.43
2018-05-11T18:56:20.665Z,8.90
2018-05-11T18:58:47.262Z,8.97
2018-05-11T19:01:13.738Z,8.83
2018-05-11T19:03:40.220Z,9.57
2018-05-11T19:06:06.703Z,8.83
2018-05-11T19:08:34.058Z,8.50
2018-05-11T19:11:00.590Z,8.67
2018-05-11T19:13:26.995Z,7.10
2018-05-11T19:15:53.478Z,6.77
2018-05-11T19:18:19.941Z,6.30
2018-05-11T19:20:46.326Z,6.27
2018-05-11T19:23:12.873Z,6.33
2018-05-11T19:25:39.311Z,5.70
2018-05-11T19:28:05.829Z,6.57
2018-05-11T19:30:32.290Z,6.50
2018-05-11T19:32:58.902Z,5.67
2018-05-11T19:35:25.603Z,6.40
2018-05-11T19:37:52.065Z,6.87
2018-05-11T19:40:18.560Z,6.70
2018-05-11T19:42:45.084Z,7.00
2018-05-11T19:45:11.631Z,6.17
2018-05-11T19:47:38.127Z,6.00
2018-05-11T19:50:04.509Z,6.40
2018-05-11T19:52:31.036Z,6.30
2018-05-11T19:54:57.560Z,5.63
2018-05-11T19:57:24.081Z,6.13
2018-05-11T19:59:50.505Z,6.30
2018-05-11T20:02:17.110Z,5.87
2018-05-11T20:04:43.774Z,6.93
2018-05-11T20:07:11.135Z,7.23
2018-05-11T20:09:37.653Z,6.70
2018-05-11T20:12:04.110Z,7.43
2018-05-11T20:14:30.522Z,7.20
2018-05-11T20:16:57.027Z,7.30
2018-05-11T20:19:23.498Z,7.30
2018-05-11T20:21:49.987Z,7.10
2018-05-11T20:24:16.559Z,8.07
2018-05-11T20:26:43.144Z,8.00
2018-05-11T20:29:09.646Z,8.17
2018-05-11T20:31:36.134Z,8.43
2018-05-11T20:34:02.583Z,7.73
2018-05-11T20:36:29.157Z,8.20
2018-05-11T20:38:55.664Z,8.00
2018-05-11T20:41:22.247Z,8.10
2018-05-11T20:43:48.764Z,9.10
2018-05-11T20:46:15.220Z,8.37
2018-05-11T20:48:41.731Z,8.60
2018-05-11T20:51:08.268Z,8.10
2018-05-11T20:53:34.786Z,8.93
2018-05-11T20:56:01.246Z,9.10
2018-05-11T20:58:27.728Z,10.27
2018-05-11T21:00:54.217Z,10.60
2018-05-11T21:03:20.665Z,10.77
2018-05-11T21:05:47.076Z,10.40
2018-05-11T21:08:13.567Z,9.97
2018-05-11T21:10:40.205Z,10.30
2018-05-11T21:13:06.644Z,10.60
2018-05-11T21:15:33.119Z,10.27
2018-05-11T21:17:59.551Z,8.90
2018-05-11T21:20:25.991Z,8.93
2018-05-11T21:22:52.440Z,8.90
2018-05-11T21:25:18.857Z,9.23
2018-05-11T21:27:46.159Z,9.37
2018-05-11T21:30:12.645Z,8.87
2018-05-11T21:32:39.135Z,8.90
2018-05-11T21:35:05.604Z,9.40
2018-05-11T21:37:31.950Z,8.03
2018-05-11T21:39:58.395Z,8.47
2018-05-11T21:42:24.897Z,8.50
2018-05-11T21:44:51.388Z,8.40
2018-05-11T21:47:17.802Z,8.40
2018-05-11T21:49:44.211Z,8.10
2018-05-11T21:52:10.716Z,7.97
2018-05-11T21:54:37.098Z,9.47
2018-05-11T21:57:03.488Z,9.70
2018-05-11T21:59:29.942Z,9.77
2018-05-11T22:01:56.459Z,10.77
2018-05-11T22:04:22.934Z,11.60
2018-05-11T22:06:49.526Z,10.50
2018-05-11T22:09:15.978Z,9.20
2018-05-11T22:11:42.549Z,7.90
2018-05-11T22:14:09.719Z,9.37
2018-05-11T22:16:36.391Z,8.83
2018-05-11T22:19:02.791Z,8.50
2018-05-11T22:21:29.351Z,8.43
2018-05-11T22:23:55.764Z,8.90
2018-05-11T22:26:22.317Z,8.50
2018-05-11T22:28:48.777Z,8.23
2018-05-11T22:31:15.194Z,7.67
2018-05-11T22:33:41.626Z,7.70
2018-05-11T22:36:08.171Z,7.40
2018-05-11T22:38:34.539Z,7.10
2018-05-11T22:41:00.977Z,6.53
2018-05-11T22:43:27.466Z,6.57
2018-05-11T22:45:53.870Z,6.30
2018-05-11T22:48:20.390Z,5.93
2018-05-11T22:50:46.848Z,5.30
2018-05-11T22:53:13.242Z,5.33
2018-05-11T22:55:39.593Z,5.07
2018-05-11T22:58:05.957Z,5.27
2018-05-11T23:00:39.647Z,5.07
2018-05-11T23:03:05.937Z,5.20
2018-05-11T23:05:33.084Z,5.43
2018-05-11T23:07:59.627Z,4.70
2018-05-11T23:10:26.066Z,4.70
2018-05-11T23:12:52.507Z,4.57
2018-05-11T23:15:18.911Z,4.50
2018-05-11T23:17:45.381Z,4.60
2018-05-11T23:20:11.860Z,4.90
2018-05-11T23:22:38.378Z,5.37
2018-05-11T23:25:04.874Z,5.00
2018-05-11T23:27:38.397Z,4.70
2018-05-11T23:30:04.931Z,4.90
2018-05-11T23:32:31.412Z,4.83
2018-05-11T23:34:57.883Z,4.87
2018-05-11T23:37:24.262Z,4.97
2018-05-11T23:39:50.681Z,4.63
2018-05-11T23:42:17.121Z,5.17
2018-05-11T23:44:43.533Z,5.40
2018-05-11T23:47:10.024Z,4.90
2018-05-11T23:49:36.509Z,5.47
2018-05-11T23:52:02.961Z,5.00
2018-05-11T23:54:29.367Z,5.47
2018-05-11T23:56:55.768Z,5.17
2018-05-11T23:59:22.271Z,6.17
